CHICAGO AURORA MUNICIPAL, IL, United States (KARR) 41-46N 088-28W 215M
Wind: from the WNW (300 degrees) at 8 MPH (7 KT):0
Visibility: 8 mile(s):0
Sky conditions: overcast
Temperature: 28.0 F (-2.2 C)
Windchill: 19 F (-7 C):1
Dew Point: 23.0 F (-5.0 C)
Relative Humidity: 81%
Pressure (altimeter): 30.23 in. Hg (1023 hPa)
ob: KARR 201352Z 30007KT 8SM OVC030 M02/M05 A3023 RMK AO2 SLP245 T10221050
Raw METAR:KARR 201352Z 30007KT 8SM OVC030 M02/M05 A3023 RMK AO2 SLP245 T10221050
cycle: 14
Back to top

CHICAGO/WEST CH DUPAGE, IL, United States (KDPA) 41-54N 88-15W 230M
Wind: from the NW (320 degrees) at 8 MPH (7 KT):0
Visibility: 9 mile(s):0
Sky conditions: overcast
Temperature: 28.9 F (-1.7 C)
Windchill: 21 F (-6 C):1
Dew Point: 21.9 F (-5.6 C)
Relative Humidity: 74%
Pressure (altimeter): 30.21 in. Hg (1023 hPa)
ob: KDPA 201352Z 32007KT 9SM OVC025 M02/M06 A3021 RMK AO2 SLP239 T10171056
Raw METAR:KDPA 201352Z 32007KT 9SM OVC025 M02/M06 A3021 RMK AO2 SLP239 T10171056
cycle: 14
Back to top

De Kalb, De Kalb Taylor Municipal Airport, IL, United States (KDKB) 41-55-55N 088-42-30W
Wind: from the WNW (300 degrees) at 8 MPH (7 KT):0
Visibility: 10 mile(s):0
Temperature: 25.9 F (-3.4 C)
Windchill: 17 F (-8 C):1
Dew Point: 21.9 F (-5.6 C)
Relative Humidity: 84%
Pressure (altimeter): 30.23 in. Hg (1023 hPa)
ob: KDKB 201355Z AUTO 30007KT 10SM M03/M06 A3023 RMK AO2 T10341056
Raw METAR:KDKB 201355Z AUTO 30007KT 10SM M03/M06 A3023 RMK AO2 T10341056
cycle: 14
Back to top

Joliet, Joliet Regional Airport, IL, United States (KJOT) 41-31-05N 088-10-31W
Wind: from the NW (320 degrees) at 5 MPH (4 KT):0
Visibility: 10 mile(s):0
Sky conditions: overcast
Temperature: 30.9 F (-0.6 C)
Windchill: 26 F (-3 C):1
Dew Point: 24.6 F (-4.1 C)
Relative Humidity: 77%
Pressure (altimeter): 30.24 in. Hg (1024 hPa)
ob: KJOT 201355Z AUTO 32004KT 10SM OVC021 M01/M04 A3024 RMK AO2 T10061041
Raw METAR:KJOT 201355Z AUTO 32004KT 10SM OVC021 M01/M04 A3024 RMK AO2 T10061041
cycle: 14
Back to top

Kankakee, Greater Kankakee Airport, IL, United States (KIKK) 41-04-17N 087-50-47W
Wind: from the NW (320 degrees) at 9 MPH (8 KT):0
Visibility: 10 mile(s):0
Sky conditions: overcast
Temperature: 30.0 F (-1.1 C)
Windchill: 21 F (-6 C):1
Dew Point: 23.5 F (-4.7 C)
Relative Humidity: 76%
Pressure (altimeter): 30.23 in. Hg (1023 hPa)
ob: KIKK 201355Z AUTO 32008KT 10SM SCT024 BKN030 OVC045 M01/M05 A3023 RMK AO2 T10111047
Raw METAR:KIKK 201355Z AUTO 32008KT 10SM SCT024 BKN030 OVC045 M01/M05 A3023 RMK AO2 T10111047
cycle: 14
Back to top

Morris, Morris Municipal-James R Washburn Field Airport, IL, United States (KC09) 41-25-31N 088-25-07W
Wind: from the NW (320 degrees) at 7 MPH (6 KT):0
Visibility: 10 mile(s):0
Sky conditions: overcast
Temperature: 29.3 F (-1.5 C)
Windchill: 23 F (-5 C):1
Dew Point: 23.7 F (-4.6 C)
Relative Humidity: 79%
Pressure (altimeter): 30.23 in. Hg (1023 hPa)
ob: KC09 201355Z AUTO 32006KT 10SM OVC026 M01/M05 A3023 RMK AO2 T10151046
Raw METAR:KC09 201355Z AUTO 32006KT 10SM OVC026 M01/M05 A3023 RMK AO2 T10151046
cycle: 14
Back to top

Peru, Illinois Valley Regional-Walter A Duncan Field Airport, IL, United States (KVYS) 41-21-07N 089-09-11W
Wind: from the WNW (290 degrees) at 6 MPH (5 KT):0
Visibility: 10 mile(s):0
Sky conditions: clear
Temperature: 27.3 F (-2.6 C)
Windchill: 21 F (-6 C):1
Dew Point: 23.7 F (-4.6 C)
Relative Humidity: 86%
Pressure (altimeter): 30.27 in. Hg (1025 hPa)
ob: KVYS 201355Z AUTO 29005KT 10SM CLR M03/M05 A3027 RMK AO2 T10261046
Raw METAR:KVYS 201355Z AUTO 29005KT 10SM CLR M03/M05 A3027 RMK AO2 T10261046
cycle: 14
Back to top

Rochelle, Rochelle Municipal-Koritz Field Airport, IL, United States (KRPJ) 41-53-35N 089-04-42W
Wind: from the W (280 degrees) at 5 MPH (4 KT):0
Visibility: 10 mile(s):0
Sky conditions: clear
Temperature: 25.3 F (-3.7 C)
Windchill: 19 F (-7 C):1
Dew Point: 21.7 F (-5.7 C)
Relative Humidity: 85%
Pressure (altimeter): 30.25 in. Hg (1024 hPa)
ob: KRPJ 201355Z AUTO 28004KT 10SM CLR M04/M06 A3025 RMK AO2 T10371057
Raw METAR:KRPJ 201355Z AUTO 28004KT 10SM CLR M04/M06 A3025 RMK AO2 T10371057
cycle: 14
Back to top